NSZ5YB ESSA-EKCH
Flight info
| Callsign | NSZ5YB |
|---|---|
| Flight time | 0h 56m |
| Altitude | 36000 |
| Route | PETEV N872 ERNOV |
| Aircraft | B738/M-SDE2E3FGHIRWXY/LB1 |
Departure
| Time | 2026-04-22 14:58 |
|---|---|
| Airport | Stockholm-Arlanda Airport (ESSA) |
Arrival
| Time | 2026-04-22 15:54 |
|---|---|
| Airport | Copenhagen Kastrup Airport (EKCH) |
| Time | Latitude | Longitude | Altitude | Speed | Heading |
|---|---|---|---|---|---|
| 2026-04-22 14:38 | 59.65434 | 17.93508 | 137 ft | 0 kts | 74° |
| 2026-04-22 14:46 | 59.65433 | 17.93507 | 137 ft | 1 kts | 74° |
| 2026-04-22 14:47 | 59.65427 | 17.93461 | 137 ft | 4 kts | 74° |
| 2026-04-22 14:47 | 59.65420 | 17.93413 | 137 ft | 4 kts | 72° |
| 2026-04-22 14:47 | 59.65409 | 17.93374 | 137 ft | 4 kts | 20° |
| 2026-04-22 14:47 | 59.65384 | 17.93373 | 137 ft | 3 kts | 346° |
| 2026-04-22 14:48 | 59.65377 | 17.93377 | 137 ft | 0 kts | 346° |
| 2026-04-22 14:50 | 59.65385 | 17.93373 | 137 ft | 6 kts | 346° |
| 2026-04-22 14:50 | 59.65438 | 17.93347 | 137 ft | 9 kts | 346° |
| 2026-04-22 14:51 | 59.65501 | 17.93339 | 137 ft | 9 kts | 356° |
| 2026-04-22 14:51 | 59.65568 | 17.93311 | 137 ft | 10 kts | 349° |
| 2026-04-22 14:51 | 59.65616 | 17.93336 | 137 ft | 5 kts | 53° |
| 2026-04-22 14:51 | 59.65631 | 17.93422 | 137 ft | 9 kts | 75° |
| 2026-04-22 14:52 | 59.65648 | 17.93544 | 137 ft | 9 kts | 75° |
| 2026-04-22 14:52 | 59.65663 | 17.93667 | 137 ft | 9 kts | 75° |
| 2026-04-22 14:52 | 59.65685 | 17.93841 | 137 ft | 17 kts | 77° |
| 2026-04-22 14:52 | 59.65715 | 17.94073 | 137 ft | 17 kts | 76° |
| 2026-04-22 14:53 | 59.65745 | 17.94306 | 137 ft | 20 kts | 76° |
| 2026-04-22 14:53 | 59.65783 | 17.94601 | 137 ft | 22 kts | 75° |
| 2026-04-22 14:53 | 59.65821 | 17.94897 | 137 ft | 22 kts | 76° |
| 2026-04-22 14:53 | 59.65857 | 17.95184 | 137 ft | 21 kts | 76° |
| 2026-04-22 14:54 | 59.65892 | 17.95459 | 137 ft | 21 kts | 77° |
| 2026-04-22 14:54 | 59.65926 | 17.95730 | 137 ft | 20 kts | 76° |
| 2026-04-22 14:54 | 59.65960 | 17.95991 | 137 ft | 19 kts | 75° |
| 2026-04-22 14:54 | 59.65992 | 17.96245 | 137 ft | 19 kts | 76° |
| 2026-04-22 14:55 | 59.66024 | 17.96490 | 137 ft | 18 kts | 76° |
| 2026-04-22 14:55 | 59.66054 | 17.96727 | 137 ft | 17 kts | 76° |
| 2026-04-22 14:55 | 59.66083 | 17.96956 | 137 ft | 17 kts | 75° |
| 2026-04-22 14:55 | 59.66111 | 17.97176 | 137 ft | 16 kts | 76° |
| 2026-04-22 14:56 | 59.66137 | 17.97389 | 137 ft | 16 kts | 76° |
| 2026-04-22 14:56 | 59.66163 | 17.97592 | 137 ft | 15 kts | 76° |
| 2026-04-22 14:56 | 59.66214 | 17.97764 | 137 ft | 14 kts | 50° |
| 2026-04-22 14:56 | 59.66282 | 17.97902 | 137 ft | 14 kts | 35° |
| 2026-04-22 14:57 | 59.66366 | 17.97901 | 135 ft | 8 kts | 345° |
| 2026-04-22 14:57 | 59.66381 | 17.97869 | 134 ft | 4 kts | 271° |
| 2026-04-22 14:57 | 59.66374 | 17.97789 | 134 ft | 8 kts | 258° |
| 2026-04-22 14:57 | 59.66317 | 17.97344 | 137 ft | 70 kts | 255° |
| 2026-04-22 14:58 | 59.66140 | 17.95951 | 140 ft | 136 kts | 256° |
| 2026-04-22 14:58 | 59.65916 | 17.93961 | 611 ft | 155 kts | 262° |
| 2026-04-22 14:58 | 59.65595 | 17.91819 | 1342 ft | 168 kts | 260° |
| 2026-04-22 14:58 | 59.65463 | 17.89371 | 1870 ft | 194 kts | 276° |
| 2026-04-22 14:59 | 59.65562 | 17.86484 | 2028 ft | 228 kts | 277° |
| 2026-04-22 14:59 | 59.65628 | 17.83118 | 2198 ft | 262 kts | 275° |
| 2026-04-22 14:59 | 59.65687 | 17.79342 | 2808 ft | 281 kts | 274° |
| 2026-04-22 14:59 | 59.65711 | 17.75435 | 3828 ft | 284 kts | 275° |
| 2026-04-22 15:00 | 59.65754 | 17.71566 | 5098 ft | 279 kts | 277° |
| 2026-04-22 15:00 | 59.65779 | 17.67736 | 6232 ft | 284 kts | 266° |
| 2026-04-22 15:00 | 59.64926 | 17.64193 | 7476 ft | 294 kts | 234° |
| 2026-04-22 15:00 | 59.63352 | 17.61577 | 8590 ft | 301 kts | 222° |
| 2026-04-22 15:01 | 59.61680 | 17.59290 | 9350 ft | 307 kts | 222° |
| 2026-04-22 15:01 | 59.59924 | 17.56817 | 10149 ft | 314 kts | 223° |
| 2026-04-22 15:01 | 59.58110 | 17.54213 | 10592 ft | 335 kts | 223° |
| 2026-04-22 15:01 | 59.56169 | 17.51408 | 11016 ft | 353 kts | 222° |
| 2026-04-22 15:02 | 59.54167 | 17.48534 | 11763 ft | 360 kts | 221° |
| 2026-04-22 15:02 | 59.52145 | 17.45645 | 12568 ft | 365 kts | 220° |
| 2026-04-22 15:02 | 59.50070 | 17.42685 | 13342 ft | 371 kts | 220° |
| 2026-04-22 15:02 | 59.47959 | 17.39676 | 14086 ft | 377 kts | 219° |
| 2026-04-22 15:03 | 59.45826 | 17.36641 | 14898 ft | 379 kts | 219° |
| 2026-04-22 15:03 | 59.43692 | 17.33611 | 15770 ft | 379 kts | 219° |
| 2026-04-22 15:03 | 59.41554 | 17.30575 | 16593 ft | 380 kts | 219° |
| 2026-04-22 15:03 | 59.39403 | 17.27524 | 17380 ft | 383 kts | 219° |
| 2026-04-22 15:04 | 59.37234 | 17.24451 | 18151 ft | 386 kts | 219° |
| 2026-04-22 15:04 | 59.35049 | 17.21361 | 18834 ft | 389 kts | 219° |
| 2026-04-22 15:04 | 59.32840 | 17.18241 | 19444 ft | 394 kts | 219° |
| 2026-04-22 15:04 | 59.30618 | 17.15109 | 20178 ft | 394 kts | 219° |
| 2026-04-22 15:05 | 59.28383 | 17.11962 | 20781 ft | 399 kts | 219° |
| 2026-04-22 15:05 | 59.26112 | 17.08768 | 21303 ft | 405 kts | 219° |
| 2026-04-22 15:05 | 59.23839 | 17.05577 | 21861 ft | 410 kts | 219° |
| 2026-04-22 15:05 | 59.21512 | 17.02319 | 22443 ft | 414 kts | 219° |
| 2026-04-22 15:06 | 59.19936 | 17.00068 | 22827 ft | 417 kts | 221° |
| 2026-04-22 15:06 | 59.17023 | 16.95478 | 23537 ft | 421 kts | 224° |
| 2026-04-22 15:06 | 59.14779 | 16.91764 | 24016 ft | 425 kts | 224° |
| 2026-04-22 15:06 | 59.12519 | 16.88003 | 24466 ft | 429 kts | 224° |
| 2026-04-22 15:07 | 59.10237 | 16.84234 | 24934 ft | 433 kts | 224° |
| 2026-04-22 15:07 | 59.07923 | 16.80453 | 25390 ft | 435 kts | 223° |
| 2026-04-22 15:07 | 59.05574 | 16.76644 | 25745 ft | 442 kts | 223° |
| 2026-04-22 15:07 | 59.03198 | 16.72808 | 26136 ft | 447 kts | 223° |
| 2026-04-22 15:08 | 59.00795 | 16.68945 | 26601 ft | 449 kts | 223° |
| 2026-04-22 15:08 | 58.98386 | 16.65082 | 27072 ft | 452 kts | 223° |
| 2026-04-22 15:08 | 58.95947 | 16.61174 | 27474 ft | 456 kts | 223° |
| 2026-04-22 15:08 | 58.93496 | 16.57252 | 27881 ft | 459 kts | 222° |
| 2026-04-22 15:09 | 58.91023 | 16.53304 | 28280 ft | 463 kts | 222° |
| 2026-04-22 15:09 | 58.88527 | 16.49327 | 28677 ft | 466 kts | 222° |
| 2026-04-22 15:09 | 58.86017 | 16.45338 | 29072 ft | 469 kts | 222° |
| 2026-04-22 15:09 | 58.83485 | 16.41323 | 29448 ft | 472 kts | 221° |
| 2026-04-22 15:10 | 58.80935 | 16.37283 | 29802 ft | 476 kts | 221° |
| 2026-04-22 15:10 | 58.78362 | 16.33216 | 30155 ft | 479 kts | 221° |
| 2026-04-22 15:10 | 58.75779 | 16.29139 | 30474 ft | 482 kts | 221° |
| 2026-04-22 15:10 | 58.73178 | 16.25042 | 30779 ft | 484 kts | 220° |
| 2026-04-22 15:11 | 58.70560 | 16.20930 | 31065 ft | 487 kts | 220° |
| 2026-04-22 15:11 | 58.67925 | 16.16802 | 31379 ft | 489 kts | 220° |
| 2026-04-22 15:11 | 58.65292 | 16.12687 | 31778 ft | 489 kts | 220° |
| 2026-04-22 15:11 | 58.62656 | 16.08573 | 32197 ft | 487 kts | 219° |
| 2026-04-22 15:12 | 58.60026 | 16.04474 | 32598 ft | 487 kts | 219° |
| 2026-04-22 15:12 | 58.57396 | 16.00382 | 32981 ft | 486 kts | 219° |
| 2026-04-22 15:12 | 58.54886 | 15.96486 | 33364 ft | 486 kts | 218° |
| 2026-04-22 15:12 | 58.52226 | 15.92363 | 33767 ft | 486 kts | 218° |
| 2026-04-22 15:13 | 58.49640 | 15.88362 | 34122 ft | 485 kts | 218° |
| 2026-04-22 15:13 | 58.47011 | 15.84303 | 34448 ft | 485 kts | 218° |
| 2026-04-22 15:13 | 58.44387 | 15.80257 | 34767 ft | 484 kts | 218° |
| 2026-04-22 15:13 | 58.41769 | 15.76231 | 35085 ft | 484 kts | 218° |
| 2026-04-22 15:14 | 58.39146 | 15.72206 | 35410 ft | 483 kts | 218° |
| 2026-04-22 15:14 | 58.36530 | 15.68206 | 35775 ft | 480 kts | 217° |
| 2026-04-22 15:14 | 58.33932 | 15.64240 | 36130 ft | 479 kts | 217° |
| 2026-04-22 15:14 | 58.31315 | 15.60249 | 36108 ft | 485 kts | 217° |
| 2026-04-22 15:15 | 58.26051 | 15.52240 | 36125 ft | 484 kts | 217° |
| 2026-04-22 15:15 | 58.20836 | 15.44332 | 36136 ft | 477 kts | 217° |
| 2026-04-22 15:16 | 58.15677 | 15.36542 | 36148 ft | 477 kts | 217° |
| 2026-04-22 15:16 | 58.11354 | 15.30035 | 36156 ft | 478 kts | 216° |
| 2026-04-22 15:17 | 58.06146 | 15.22233 | 36150 ft | 478 kts | 216° |
| 2026-04-22 15:17 | 58.00919 | 15.14442 | 36147 ft | 479 kts | 216° |
| 2026-04-22 15:18 | 57.95698 | 15.06683 | 36151 ft | 479 kts | 216° |
| 2026-04-22 15:18 | 57.90542 | 14.99046 | 36150 ft | 480 kts | 216° |
| 2026-04-22 15:19 | 57.85292 | 14.91299 | 36152 ft | 480 kts | 216° |
| 2026-04-22 15:19 | 57.80044 | 14.83584 | 36158 ft | 479 kts | 216° |
| 2026-04-22 15:20 | 57.74789 | 14.75888 | 36157 ft | 479 kts | 216° |
| 2026-04-22 15:20 | 57.69527 | 14.68211 | 36156 ft | 479 kts | 216° |
| 2026-04-22 15:21 | 57.64263 | 14.60568 | 36153 ft | 479 kts | 215° |
| 2026-04-22 15:21 | 57.58987 | 14.52929 | 35575 ft | 481 kts | 215° |
| 2026-04-22 15:22 | 57.56360 | 14.49131 | 35205 ft | 476 kts | 215° |
| 2026-04-22 15:22 | 57.53753 | 14.45370 | 34800 ft | 472 kts | 215° |
| 2026-04-22 15:22 | 57.51164 | 14.41642 | 34393 ft | 468 kts | 215° |
| 2026-04-22 15:22 | 57.48597 | 14.37955 | 33961 ft | 465 kts | 215° |
| 2026-04-22 15:23 | 57.46041 | 14.34293 | 33516 ft | 462 kts | 215° |
| 2026-04-22 15:23 | 57.43511 | 14.30673 | 33104 ft | 458 kts | 215° |
| 2026-04-22 15:23 | 57.40996 | 14.27082 | 32696 ft | 454 kts | 215° |
| 2026-04-22 15:23 | 57.38498 | 14.23521 | 32315 ft | 451 kts | 214° |
| 2026-04-22 15:24 | 57.36025 | 14.20001 | 31931 ft | 447 kts | 215° |
| 2026-04-22 15:24 | 57.33593 | 14.16546 | 31550 ft | 444 kts | 215° |
| 2026-04-22 15:24 | 57.31150 | 14.13082 | 31161 ft | 442 kts | 215° |
| 2026-04-22 15:24 | 57.28715 | 14.09636 | 30782 ft | 439 kts | 215° |
| 2026-04-22 15:25 | 57.26302 | 14.06224 | 30392 ft | 436 kts | 215° |
| 2026-04-22 15:25 | 57.23891 | 14.02823 | 29974 ft | 434 kts | 215° |
| 2026-04-22 15:25 | 57.21574 | 13.99558 | 29565 ft | 431 kts | 215° |
| 2026-04-22 15:25 | 57.19197 | 13.96212 | 29141 ft | 428 kts | 215° |
| 2026-04-22 15:26 | 57.16842 | 13.92905 | 28766 ft | 424 kts | 215° |
| 2026-04-22 15:26 | 57.14506 | 13.89631 | 28378 ft | 421 kts | 215° |
| 2026-04-22 15:26 | 57.12180 | 13.86379 | 27960 ft | 419 kts | 215° |
| 2026-04-22 15:26 | 57.09863 | 13.83145 | 27558 ft | 416 kts | 215° |
| 2026-04-22 15:27 | 57.07565 | 13.79942 | 27179 ft | 413 kts | 215° |
| 2026-04-22 15:27 | 57.05283 | 13.76764 | 26802 ft | 410 kts | 216° |
| 2026-04-22 15:27 | 57.03018 | 13.73615 | 26432 ft | 407 kts | 216° |
| 2026-04-22 15:27 | 57.00764 | 13.70487 | 26056 ft | 405 kts | 216° |
| 2026-04-22 15:28 | 56.98535 | 13.67397 | 25687 ft | 402 kts | 216° |
| 2026-04-22 15:28 | 56.96306 | 13.64312 | 25322 ft | 400 kts | 216° |
| 2026-04-22 15:28 | 56.94094 | 13.61255 | 24933 ft | 398 kts | 216° |
| 2026-04-22 15:28 | 56.91888 | 13.58210 | 24574 ft | 396 kts | 216° |
| 2026-04-22 15:29 | 56.89697 | 13.55191 | 24225 ft | 393 kts | 216° |
| 2026-04-22 15:29 | 56.87510 | 13.52183 | 23842 ft | 392 kts | 216° |
| 2026-04-22 15:29 | 56.85337 | 13.49198 | 23429 ft | 390 kts | 216° |
| 2026-04-22 15:30 | 56.81026 | 13.43286 | 22645 ft | 384 kts | 216° |
| 2026-04-22 15:30 | 56.78896 | 13.40371 | 22275 ft | 381 kts | 216° |
| 2026-04-22 15:30 | 56.76790 | 13.37474 | 21907 ft | 378 kts | 217° |
| 2026-04-22 15:30 | 56.74693 | 13.34615 | 21551 ft | 375 kts | 216° |
| 2026-04-22 15:31 | 56.72613 | 13.31794 | 21196 ft | 372 kts | 217° |
| 2026-04-22 15:31 | 56.70548 | 13.28993 | 20840 ft | 369 kts | 217° |
| 2026-04-22 15:31 | 56.68523 | 13.26244 | 20489 ft | 366 kts | 217° |
| 2026-04-22 15:31 | 56.66490 | 13.23487 | 20154 ft | 364 kts | 217° |
| 2026-04-22 15:32 | 56.64470 | 13.20752 | 19803 ft | 361 kts | 217° |
| 2026-04-22 15:32 | 56.62471 | 13.18051 | 19588 ft | 354 kts | 217° |
| 2026-04-22 15:32 | 56.60582 | 13.15501 | 19289 ft | 351 kts | 217° |
| 2026-04-22 15:32 | 56.58628 | 13.12870 | 18959 ft | 349 kts | 217° |
| 2026-04-22 15:33 | 56.56679 | 13.10247 | 18634 ft | 347 kts | 217° |
| 2026-04-22 15:33 | 56.54742 | 13.07642 | 18242 ft | 346 kts | 217° |
| 2026-04-22 15:33 | 56.52812 | 13.05050 | 17857 ft | 345 kts | 217° |
| 2026-04-22 15:33 | 56.50887 | 13.02468 | 17467 ft | 343 kts | 218° |
| 2026-04-22 15:34 | 56.48995 | 12.99933 | 17110 ft | 342 kts | 217° |
| 2026-04-22 15:34 | 56.47125 | 12.97430 | 16744 ft | 340 kts | 218° |
| 2026-04-22 15:34 | 56.45226 | 12.94892 | 16388 ft | 338 kts | 218° |
| 2026-04-22 15:34 | 56.43342 | 12.92377 | 16042 ft | 336 kts | 218° |
| 2026-04-22 15:35 | 56.41466 | 12.89876 | 15703 ft | 334 kts | 218° |
| 2026-04-22 15:35 | 56.39597 | 12.87386 | 15362 ft | 333 kts | 218° |
| 2026-04-22 15:35 | 56.37741 | 12.84918 | 15033 ft | 331 kts | 218° |
| 2026-04-22 15:35 | 56.35894 | 12.82464 | 14702 ft | 329 kts | 218° |
| 2026-04-22 15:36 | 56.34055 | 12.80025 | 14383 ft | 327 kts | 218° |
| 2026-04-22 15:36 | 56.32228 | 12.77603 | 14072 ft | 325 kts | 218° |
| 2026-04-22 15:36 | 56.30407 | 12.75193 | 13689 ft | 324 kts | 218° |
| 2026-04-22 15:36 | 56.28594 | 12.72795 | 13358 ft | 322 kts | 218° |
| 2026-04-22 15:37 | 56.26793 | 12.70416 | 12995 ft | 320 kts | 219° |
| 2026-04-22 15:37 | 56.25002 | 12.68051 | 12652 ft | 319 kts | 219° |
| 2026-04-22 15:37 | 56.23216 | 12.65697 | 12337 ft | 317 kts | 219° |
| 2026-04-22 15:37 | 56.21441 | 12.63363 | 12013 ft | 315 kts | 219° |
| 2026-04-22 15:38 | 56.19679 | 12.61049 | 11683 ft | 313 kts | 218° |
| 2026-04-22 15:38 | 56.15620 | 12.58893 | 11107 ft | 311 kts | 170° |
| 2026-04-22 15:38 | 56.13583 | 12.60081 | 10907 ft | 308 kts | 153° |
| 2026-04-22 15:39 | 56.11644 | 12.61732 | 10704 ft | 311 kts | 152° |
| 2026-04-22 15:39 | 56.09689 | 12.63435 | 10462 ft | 312 kts | 152° |
| 2026-04-22 15:39 | 56.07754 | 12.65122 | 10223 ft | 308 kts | 152° |
| 2026-04-22 15:39 | 56.05836 | 12.66785 | 9967 ft | 304 kts | 152° |
| 2026-04-22 15:40 | 56.03944 | 12.68417 | 9730 ft | 300 kts | 152° |
| 2026-04-22 15:40 | 56.02077 | 12.70020 | 9512 ft | 297 kts | 152° |
| 2026-04-22 15:40 | 56.00240 | 12.71593 | 9298 ft | 297 kts | 152° |
| 2026-04-22 15:40 | 55.98371 | 12.73189 | 9082 ft | 298 kts | 152° |
| 2026-04-22 15:41 | 55.96501 | 12.74781 | 8863 ft | 298 kts | 153° |
| 2026-04-22 15:41 | 55.94631 | 12.76371 | 8645 ft | 298 kts | 153° |
| 2026-04-22 15:41 | 55.92760 | 12.77959 | 8418 ft | 298 kts | 153° |
| 2026-04-22 15:41 | 55.90890 | 12.79543 | 8198 ft | 297 kts | 153° |
| 2026-04-22 15:42 | 55.89030 | 12.81118 | 7985 ft | 296 kts | 153° |
| 2026-04-22 15:42 | 55.87167 | 12.82692 | 7765 ft | 295 kts | 153° |
| 2026-04-22 15:42 | 55.85319 | 12.84253 | 7556 ft | 294 kts | 153° |
| 2026-04-22 15:42 | 55.83478 | 12.85805 | 7333 ft | 292 kts | 153° |
| 2026-04-22 15:43 | 55.81651 | 12.87345 | 7122 ft | 290 kts | 153° |
| 2026-04-22 15:43 | 55.79836 | 12.88872 | 6910 ft | 288 kts | 153° |
| 2026-04-22 15:43 | 55.78030 | 12.90390 | 6702 ft | 286 kts | 154° |
| 2026-04-22 15:43 | 55.76236 | 12.91898 | 6482 ft | 284 kts | 154° |
| 2026-04-22 15:44 | 55.74452 | 12.93395 | 6266 ft | 283 kts | 154° |
| 2026-04-22 15:44 | 55.72676 | 12.94884 | 6048 ft | 281 kts | 154° |
| 2026-04-22 15:44 | 55.70912 | 12.96361 | 5837 ft | 279 kts | 154° |
| 2026-04-22 15:44 | 55.69193 | 12.97799 | 5644 ft | 278 kts | 154° |
| 2026-04-22 15:45 | 55.67463 | 12.99245 | 5457 ft | 279 kts | 154° |
| 2026-04-22 15:45 | 55.65698 | 13.00719 | 5255 ft | 282 kts | 154° |
| 2026-04-22 15:45 | 55.63926 | 13.02199 | 5046 ft | 282 kts | 154° |
| 2026-04-22 15:45 | 55.62172 | 13.03661 | 4867 ft | 274 kts | 154° |
| 2026-04-22 15:46 | 55.60475 | 13.05074 | 4463 ft | 266 kts | 154° |
| 2026-04-22 15:46 | 55.58851 | 13.06423 | 4223 ft | 250 kts | 154° |
| 2026-04-22 15:46 | 55.57326 | 13.07687 | 4027 ft | 234 kts | 154° |
| 2026-04-22 15:46 | 55.55843 | 13.08495 | 3876 ft | 217 kts | 182° |
| 2026-04-22 15:47 | 55.54500 | 13.07801 | 3819 ft | 192 kts | 218° |
| 2026-04-22 15:47 | 55.53597 | 13.06274 | 3684 ft | 169 kts | 245° |
| 2026-04-22 15:47 | 55.53110 | 13.04524 | 3574 ft | 150 kts | 263° |
| 2026-04-22 15:47 | 55.52977 | 13.02726 | 3548 ft | 146 kts | 281° |
| 2026-04-22 15:48 | 55.52997 | 13.00942 | 3482 ft | 145 kts | 279° |
| 2026-04-22 15:48 | 55.52999 | 12.99183 | 3407 ft | 142 kts | 279° |
| 2026-04-22 15:48 | 55.53001 | 12.97447 | 3333 ft | 141 kts | 280° |
| 2026-04-22 15:48 | 55.53008 | 12.95735 | 3260 ft | 139 kts | 280° |
| 2026-04-22 15:49 | 55.53016 | 12.94044 | 3192 ft | 139 kts | 279° |
| 2026-04-22 15:49 | 55.53028 | 12.92300 | 3082 ft | 143 kts | 279° |
| 2026-04-22 15:49 | 55.53037 | 12.90555 | 2996 ft | 142 kts | 278° |
| 2026-04-22 15:49 | 55.53219 | 12.88945 | 2925 ft | 129 kts | 308° |
| 2026-04-22 15:50 | 55.53750 | 12.87685 | 2778 ft | 131 kts | 301° |
| 2026-04-22 15:50 | 55.54179 | 12.86183 | 2589 ft | 153 kts | 304° |
| 2026-04-22 15:50 | 55.54759 | 12.84632 | 2364 ft | 144 kts | 306° |
| 2026-04-22 15:50 | 55.55261 | 12.83252 | 2270 ft | 131 kts | 306° |
| 2026-04-22 15:51 | 55.55761 | 12.81889 | 2058 ft | 138 kts | 306° |
| 2026-04-22 15:51 | 55.56269 | 12.80504 | 1817 ft | 132 kts | 306° |
| 2026-04-22 15:51 | 55.56764 | 12.79175 | 1637 ft | 128 kts | 307° |
| 2026-04-22 15:51 | 55.57263 | 12.77823 | 1501 ft | 131 kts | 307° |
| 2026-04-22 15:52 | 55.57749 | 12.76511 | 1359 ft | 128 kts | 306° |
| 2026-04-22 15:52 | 55.58243 | 12.75165 | 1141 ft | 133 kts | 307° |
| 2026-04-22 15:52 | 55.58754 | 12.73795 | 928 ft | 132 kts | 306° |
| 2026-04-22 15:52 | 55.59255 | 12.72445 | 782 ft | 130 kts | 304° |
| 2026-04-22 15:53 | 55.59752 | 12.71096 | 628 ft | 132 kts | 304° |
| 2026-04-22 15:53 | 55.60254 | 12.69742 | 412 ft | 131 kts | 305° |
| 2026-04-22 15:53 | 55.60742 | 12.68422 | 274 ft | 126 kts | 305° |
| 2026-04-22 15:53 | 55.61228 | 12.67111 | 102 ft | 129 kts | 304° |
| 2026-04-22 15:54 | 55.61692 | 12.65872 | 20 ft | 109 kts | 304° |
| 2026-04-22 15:54 | 55.62001 | 12.65032 | 16 ft | 51 kts | 303° |
| 2026-04-22 15:54 | 55.62113 | 12.64707 | 17 ft | 18 kts | 274° |
| 2026-04-22 15:54 | 55.62059 | 12.64603 | 16 ft | 12 kts | 214° |